sensor_id;sensor_type;location;lat;lon;timestamp;P1;durP1;ratioP1;P2;durP2;ratioP2
27985;SDS011;15453;53.692;10.168;2022-10-31T00:01:55;12.27;;;7.18;;
27985;SDS011;15453;53.692;10.168;2022-10-31T00:04:20;15.60;;;7.78;;
27985;SDS011;15453;53.692;10.168;2022-10-31T00:06:45;11.07;;;7.10;;
27985;SDS011;15453;53.692;10.168;2022-10-31T00:09:10;12.95;;;7.05;;
27985;SDS011;15453;53.692;10.168;2022-10-31T00:11:36;12.60;;;7.53;;
27985;SDS011;15453;53.692;10.168;2022-10-31T00:14:01;11.95;;;7.65;;
27985;SDS011;15453;53.692;10.168;2022-10-31T00:16:27;11.55;;;7.43;;
27985;SDS011;15453;53.692;10.168;2022-10-31T00:18:54;14.43;;;7.60;;
27985;SDS011;15453;53.692;10.168;2022-10-31T00:21:21;12.88;;;8.45;;
27985;SDS011;15453;53.692;10.168;2022-10-31T00:23:47;15.50;;;8.45;;
27985;SDS011;15453;53.692;10.168;2022-10-31T00:26:13;14.88;;;8.20;;
27985;SDS011;15453;53.692;10.168;2022-10-31T00:28:38;14.50;;;8.15;;
27985;SDS011;15453;53.692;10.168;2022-10-31T00:31:04;13.45;;;8.80;;
27985;SDS011;15453;53.692;10.168;2022-10-31T00:33:32;15.20;;;8.65;;
27985;SDS011;15453;53.692;10.168;2022-10-31T00:35:59;14.43;;;8.77;;
27985;SDS011;15453;53.692;10.168;2022-10-31T00:38:24;13.43;;;8.68;;
27985;SDS011;15453;53.692;10.168;2022-10-31T00:40:49;13.65;;;9.15;;
27985;SDS011;15453;53.692;10.168;2022-10-31T00:43:15;13.95;;;8.27;;
27985;SDS011;15453;53.692;10.168;2022-10-31T00:45:41;16.38;;;8.73;;
27985;SDS011;15453;53.692;10.168;2022-10-31T00:48:07;13.95;;;9.02;;
27985;SDS011;15453;53.692;10.168;2022-10-31T00:50:33;15.40;;;8.88;;
27985;SDS011;15453;53.692;10.168;2022-10-31T00:52:58;14.18;;;9.05;;
27985;SDS011;15453;53.692;10.168;2022-10-31T00:55:23;17.70;;;8.90;;
27985;SDS011;15453;53.692;10.168;2022-10-31T00:57:48;14.80;;;8.73;;
27985;SDS011;15453;53.692;10.168;2022-10-31T01:00:14;14.68;;;9.20;;
27985;SDS011;15453;53.692;10.168;2022-10-31T01:02:40;15.40;;;8.70;;
27985;SDS011;15453;53.692;10.168;2022-10-31T01:05:05;13.98;;;9.07;;
27985;SDS011;15453;53.692;10.168;2022-10-31T01:07:30;12.10;;;8.82;;
27985;SDS011;15453;53.692;10.168;2022-10-31T01:09:56;19.20;;;9.80;;
27985;SDS011;15453;53.692;10.168;2022-10-31T01:12:21;17.67;;;10.43;;
27985;SDS011;15453;53.692;10.168;2022-10-31T01:14:46;14.63;;;9.48;;
27985;SDS011;15453;53.692;10.168;2022-10-31T01:17:12;12.82;;;9.35;;
27985;SDS011;15453;53.692;10.168;2022-10-31T01:19:38;15.20;;;10.00;;
27985;SDS011;15453;53.692;10.168;2022-10-31T01:22:04;19.10;;;9.73;;
27985;SDS011;15453;53.692;10.168;2022-10-31T01:24:29;14.98;;;9.80;;
27985;SDS011;15453;53.692;10.168;2022-10-31T01:26:55;15.55;;;10.00;;
27985;SDS011;15453;53.692;10.168;2022-10-31T01:29:20;18.30;;;10.23;;
27985;SDS011;15453;53.692;10.168;2022-10-31T01:31:45;16.33;;;10.15;;
27985;SDS011;15453;53.692;10.168;2022-10-31T01:34:12;17.88;;;9.73;;
27985;SDS011;15453;53.692;10.168;2022-10-31T01:36:39;17.55;;;10.52;;
27985;SDS011;15453;53.692;10.168;2022-10-31T01:39:06;24.35;;;9.68;;
27985;SDS011;15453;53.692;10.168;2022-10-31T01:41:34;16.10;;;9.88;;
27985;SDS011;15453;53.692;10.168;2022-10-31T01:44:03;13.95;;;9.43;;
27985;SDS011;15453;53.692;10.168;2022-10-31T01:46:54;16.52;;;9.68;;
27985;SDS011;15453;53.692;10.168;2022-10-31T01:51:57;17.45;;;10.07;;
27985;SDS011;15453;53.692;10.168;2022-10-31T01:54:29;15.98;;;10.55;;
27985;SDS011;15453;53.692;10.168;2022-10-31T01:59:24;14.52;;;9.52;;
27985;SDS011;15453;53.692;10.168;2022-10-31T02:01:54;16.55;;;11.27;;
27985;SDS011;15453;53.692;10.168;2022-10-31T02:04:19;19.67;;;11.07;;
27985;SDS011;15453;53.692;10.168;2022-10-31T02:06:49;18.65;;;11.95;;
27985;SDS011;15453;53.692;10.168;2022-10-31T02:09:20;18.95;;;11.65;;
27985;SDS011;15453;53.692;10.168;2022-10-31T02:11:48;15.23;;;10.48;;
27985;SDS011;15453;53.692;10.168;2022-10-31T02:14:16;17.70;;;11.90;;
27985;SDS011;15453;53.692;10.168;2022-10-31T02:16:41;24.25;;;12.80;;
27985;SDS011;15453;53.692;10.168;2022-10-31T02:19:06;20.45;;;11.40;;
27985;SDS011;15453;53.692;10.168;2022-10-31T02:27:06;23.67;;;13.27;;
27985;SDS011;15453;53.692;10.168;2022-10-31T02:38:14;25.63;;;14.55;;
27985;SDS011;15453;53.692;10.168;2022-10-31T02:43:54;23.23;;;13.95;;
27985;SDS011;15453;53.692;10.168;2022-10-31T02:46:29;32.78;;;15.40;;
27985;SDS011;15453;53.692;10.168;2022-10-31T02:48:57;25.00;;;14.88;;
27985;SDS011;15453;53.692;10.168;2022-10-31T02:51:28;23.90;;;15.27;;
27985;SDS011;15453;53.692;10.168;2022-10-31T02:53:53;28.58;;;18.45;;
27985;SDS011;15453;53.692;10.168;2022-10-31T02:56:19;30.73;;;19.50;;
27985;SDS011;15453;53.692;10.168;2022-10-31T02:59:05;37.30;;;18.45;;
27985;SDS011;15453;53.692;10.168;2022-10-31T03:04:30;45.05;;;20.33;;
27985;SDS011;15453;53.692;10.168;2022-10-31T03:07:19;33.10;;;20.70;;
27985;SDS011;15453;53.692;10.168;2022-10-31T03:12:40;29.98;;;18.90;;
27985;SDS011;15453;53.692;10.168;2022-10-31T03:20:28;38.97;;;21.35;;
27985;SDS011;15453;53.692;10.168;2022-10-31T03:22:59;38.40;;;20.90;;
27985;SDS011;15453;53.692;10.168;2022-10-31T03:25:26;36.40;;;20.35;;
27985;SDS011;15453;53.692;10.168;2022-10-31T03:27:52;32.80;;;20.17;;
27985;SDS011;15453;53.692;10.168;2022-10-31T03:30:18;48.33;;;23.15;;
27985;SDS011;15453;53.692;10.168;2022-10-31T03:32:46;36.35;;;21.05;;
27985;SDS011;15453;53.692;10.168;2022-10-31T03:35:23;34.80;;;22.48;;
27985;SDS011;15453;53.692;10.168;2022-10-31T03:37:51;40.15;;;21.73;;
27985;SDS011;15453;53.692;10.168;2022-10-31T03:40:18;34.17;;;19.33;;
27985;SDS011;15453;53.692;10.168;2022-10-31T03:42:51;30.08;;;19.55;;
27985;SDS011;15453;53.692;10.168;2022-10-31T03:45:21;37.88;;;21.23;;
27985;SDS011;15453;53.692;10.168;2022-10-31T03:47:50;33.83;;;20.85;;
27985;SDS011;15453;53.692;10.168;2022-10-31T03:50:18;30.70;;;20.52;;
27985;SDS011;15453;53.692;10.168;2022-10-31T03:52:48;36.53;;;21.70;;
27985;SDS011;15453;53.692;10.168;2022-10-31T03:55:20;29.67;;;19.05;;
27985;SDS011;15453;53.692;10.168;2022-10-31T03:58:02;30.48;;;18.95;;
27985;SDS011;15453;53.692;10.168;2022-10-31T04:00:32;34.00;;;20.00;;
27985;SDS011;15453;53.692;10.168;2022-10-31T04:03:02;32.17;;;19.35;;
27985;SDS011;15453;53.692;10.168;2022-10-31T04:05:30;32.45;;;20.13;;
27985;SDS011;15453;53.692;10.168;2022-10-31T04:07:56;36.47;;;21.40;;
27985;SDS011;15453;53.692;10.168;2022-10-31T04:10:24;36.92;;;20.92;;
27985;SDS011;15453;53.692;10.168;2022-10-31T04:12:52;36.22;;;20.98;;
27985;SDS011;15453;53.692;10.168;2022-10-31T04:15:28;30.83;;;18.70;;
27985;SDS011;15453;53.692;10.168;2022-10-31T04:17:55;36.72;;;21.77;;
27985;SDS011;15453;53.692;10.168;2022-10-31T04:20:29;36.03;;;22.02;;
27985;SDS011;15453;53.692;10.168;2022-10-31T04:22:56;35.38;;;19.58;;
27985;SDS011;15453;53.692;10.168;2022-10-31T04:25:21;31.92;;;19.98;;
27985;SDS011;15453;53.692;10.168;2022-10-31T04:27:46;36.15;;;20.73;;
27985;SDS011;15453;53.692;10.168;2022-10-31T04:30:11;32.08;;;21.63;;
27985;SDS011;15453;53.692;10.168;2022-10-31T04:32:37;36.92;;;20.35;;
27985;SDS011;15453;53.692;10.168;2022-10-31T04:35:02;33.72;;;21.02;;
27985;SDS011;15453;53.692;10.168;2022-10-31T04:37:27;31.92;;;19.90;;
27985;SDS011;15453;53.692;10.168;2022-10-31T04:39:52;34.85;;;21.98;;
27985;SDS011;15453;53.692;10.168;2022-10-31T04:42:18;35.60;;;20.58;;
27985;SDS011;15453;53.692;10.168;2022-10-31T04:44:43;37.35;;;22.40;;
27985;SDS011;15453;53.692;10.168;2022-10-31T04:47:08;40.63;;;21.73;;
27985;SDS011;15453;53.692;10.168;2022-10-31T04:49:33;36.55;;;22.38;;
27985;SDS011;15453;53.692;10.168;2022-10-31T04:51:59;39.63;;;21.58;;
27985;SDS011;15453;53.692;10.168;2022-10-31T04:54:24;34.95;;;21.83;;
27985;SDS011;15453;53.692;10.168;2022-10-31T04:56:49;34.47;;;21.55;;
27985;SDS011;15453;53.692;10.168;2022-10-31T04:59:14;44.22;;;21.20;;
27985;SDS011;15453;53.692;10.168;2022-10-31T05:01:39;58.22;;;22.25;;
27985;SDS011;15453;53.692;10.168;2022-10-31T05:04:05;40.60;;;21.13;;
27985;SDS011;15453;53.692;10.168;2022-10-31T05:06:30;33.70;;;21.88;;
27985;SDS011;15453;53.692;10.168;2022-10-31T05:08:55;42.22;;;22.30;;
27985;SDS011;15453;53.692;10.168;2022-10-31T05:11:20;36.60;;;21.83;;
27985;SDS011;15453;53.692;10.168;2022-10-31T05:13:46;46.17;;;22.38;;
27985;SDS011;15453;53.692;10.168;2022-10-31T05:16:11;53.95;;;24.63;;
27985;SDS011;15453;53.692;10.168;2022-10-31T05:18:36;43.55;;;23.90;;
27985;SDS011;15453;53.692;10.168;2022-10-31T05:21:01;44.03;;;22.48;;
27985;SDS011;15453;53.692;10.168;2022-10-31T05:23:27;45.55;;;23.45;;
27985;SDS011;15453;53.692;10.168;2022-10-31T05:25:52;44.90;;;24.40;;
27985;SDS011;15453;53.692;10.168;2022-10-31T05:28:17;51.70;;;24.48;;
27985;SDS011;15453;53.692;10.168;2022-10-31T05:30:42;43.15;;;23.80;;
27985;SDS011;15453;53.692;10.168;2022-10-31T05:33:08;40.03;;;22.17;;
27985;SDS011;15453;53.692;10.168;2022-10-31T05:35:33;45.92;;;22.73;;
27985;SDS011;15453;53.692;10.168;2022-10-31T05:37:58;38.25;;;24.50;;
27985;SDS011;15453;53.692;10.168;2022-10-31T05:40:24;46.63;;;24.10;;
27985;SDS011;15453;53.692;10.168;2022-10-31T05:42:51;35.85;;;20.20;;
27985;SDS011;15453;53.692;10.168;2022-10-31T05:45:17;36.72;;;22.77;;
27985;SDS011;15453;53.692;10.168;2022-10-31T05:47:50;46.17;;;24.77;;
27985;SDS011;15453;53.692;10.168;2022-10-31T05:50:17;38.00;;;22.55;;
27985;SDS011;15453;53.692;10.168;2022-10-31T05:52:42;40.40;;;24.83;;
27985;SDS011;15453;53.692;10.168;2022-10-31T05:55:08;34.33;;;22.65;;
27985;SDS011;15453;53.692;10.168;2022-10-31T05:57:33;37.60;;;23.58;;
27985;SDS011;15453;53.692;10.168;2022-10-31T05:59:58;40.65;;;23.38;;
27985;SDS011;15453;53.692;10.168;2022-10-31T06:02:24;41.13;;;22.23;;
27985;SDS011;15453;53.692;10.168;2022-10-31T06:04:50;42.03;;;23.67;;
27985;SDS011;15453;53.692;10.168;2022-10-31T06:07:15;38.75;;;23.23;;
27985;SDS011;15453;53.692;10.168;2022-10-31T06:09:40;42.45;;;24.67;;
27985;SDS011;15453;53.692;10.168;2022-10-31T06:12:05;39.30;;;21.95;;
27985;SDS011;15453;53.692;10.168;2022-10-31T06:14:31;36.88;;;22.98;;
27985;SDS011;15453;53.692;10.168;2022-10-31T06:16:56;40.25;;;25.05;;
27985;SDS011;15453;53.692;10.168;2022-10-31T06:19:21;43.15;;;24.83;;
27985;SDS011;15453;53.692;10.168;2022-10-31T06:21:47;41.20;;;24.35;;
27985;SDS011;15453;53.692;10.168;2022-10-31T06:24:12;43.05;;;25.02;;
27985;SDS011;15453;53.692;10.168;2022-10-31T06:26:37;38.05;;;22.27;;
27985;SDS011;15453;53.692;10.168;2022-10-31T06:29:02;37.90;;;22.45;;
27985;SDS011;15453;53.692;10.168;2022-10-31T06:31:28;38.85;;;21.95;;
27985;SDS011;15453;53.692;10.168;2022-10-31T06:33:53;40.58;;;23.40;;
27985;SDS011;15453;53.692;10.168;2022-10-31T06:36:18;44.80;;;23.67;;
27985;SDS011;15453;53.692;10.168;2022-10-31T06:38:43;38.60;;;22.25;;
27985;SDS011;15453;53.692;10.168;2022-10-31T06:41:08;33.97;;;21.52;;
27985;SDS011;15453;53.692;10.168;2022-10-31T06:43:34;36.50;;;20.17;;
27985;SDS011;15453;53.692;10.168;2022-10-31T06:46:02;28.83;;;18.55;;
27985;SDS011;15453;53.692;10.168;2022-10-31T06:48:29;34.67;;;19.40;;
27985;SDS011;15453;53.692;10.168;2022-10-31T06:50:57;29.67;;;19.33;;
27985;SDS011;15453;53.692;10.168;2022-10-31T06:53:23;37.60;;;20.23;;
27985;SDS011;15453;53.692;10.168;2022-10-31T06:55:49;33.15;;;19.67;;
27985;SDS011;15453;53.692;10.168;2022-10-31T06:58:14;30.08;;;18.67;;
27985;SDS011;15453;53.692;10.168;2022-10-31T07:00:39;31.23;;;19.50;;
27985;SDS011;15453;53.692;10.168;2022-10-31T07:03:10;37.90;;;20.77;;
27985;SDS011;15453;53.692;10.168;2022-10-31T07:05:37;35.67;;;20.55;;
27985;SDS011;15453;53.692;10.168;2022-10-31T07:08:03;42.65;;;21.98;;
27985;SDS011;15453;53.692;10.168;2022-10-31T07:10:32;35.08;;;21.10;;
27985;SDS011;15453;53.692;10.168;2022-10-31T07:12:59;29.63;;;18.77;;
27985;SDS011;15453;53.692;10.168;2022-10-31T07:15:26;26.65;;;16.33;;
27985;SDS011;15453;53.692;10.168;2022-10-31T07:17:53;28.00;;;17.13;;
27985;SDS011;15453;53.692;10.168;2022-10-31T07:20:19;34.35;;;18.55;;
27985;SDS011;15453;53.692;10.168;2022-10-31T07:22:44;33.53;;;18.60;;
27985;SDS011;15453;53.692;10.168;2022-10-31T07:25:10;33.53;;;20.27;;
27985;SDS011;15453;53.692;10.168;2022-10-31T07:27:39;30.83;;;19.08;;
27985;SDS011;15453;53.692;10.168;2022-10-31T07:30:05;28.23;;;17.48;;
27985;SDS011;15453;53.692;10.168;2022-10-31T07:32:38;33.53;;;19.58;;
27985;SDS011;15453;53.692;10.168;2022-10-31T07:35:08;34.33;;;17.83;;
27985;SDS011;15453;53.692;10.168;2022-10-31T07:37:35;25.77;;;16.20;;
27985;SDS011;15453;53.692;10.168;2022-10-31T07:40:01;31.08;;;16.27;;
27985;SDS011;15453;53.692;10.168;2022-10-31T07:42:28;22.85;;;14.60;;
27985;SDS011;15453;53.692;10.168;2022-10-31T07:44:53;33.55;;;14.82;;
27985;SDS011;15453;53.692;10.168;2022-10-31T07:47:18;32.53;;;14.15;;
27985;SDS011;15453;53.692;10.168;2022-10-31T07:49:43;25.17;;;13.18;;
27985;SDS011;15453;53.692;10.168;2022-10-31T07:52:09;25.35;;;15.32;;
27985;SDS011;15453;53.692;10.168;2022-10-31T07:54:34;30.73;;;14.77;;
27985;SDS011;15453;53.692;10.168;2022-10-31T07:56:59;22.95;;;14.32;;
27985;SDS011;15453;53.692;10.168;2022-10-31T07:59:24;29.90;;;14.55;;
27985;SDS011;15453;53.692;10.168;2022-10-31T08:01:50;29.02;;;14.18;;
27985;SDS011;15453;53.692;10.168;2022-10-31T08:04:16;21.92;;;14.68;;
27985;SDS011;15453;53.692;10.168;2022-10-31T08:06:41;21.02;;;13.32;;
27985;SDS011;15453;53.692;10.168;2022-10-31T08:09:06;26.70;;;12.32;;
27985;SDS011;15453;53.692;10.168;2022-10-31T08:11:31;26.75;;;12.82;;
27985;SDS011;15453;53.692;10.168;2022-10-31T08:13:56;22.77;;;13.77;;
27985;SDS011;15453;53.692;10.168;2022-10-31T08:16:22;31.38;;;12.57;;
27985;SDS011;15453;53.692;10.168;2022-10-31T08:18:47;20.90;;;12.90;;
27985;SDS011;15453;53.692;10.168;2022-10-31T08:21:12;31.10;;;13.00;;
27985;SDS011;15453;53.692;10.168;2022-10-31T08:23:38;28.25;;;12.82;;
27985;SDS011;15453;53.692;10.168;2022-10-31T08:26:03;24.27;;;12.68;;
27985;SDS011;15453;53.692;10.168;2022-10-31T08:28:28;25.50;;;13.25;;
27985;SDS011;15453;53.692;10.168;2022-10-31T08:30:53;22.15;;;12.43;;
27985;SDS011;15453;53.692;10.168;2022-10-31T08:33:19;26.05;;;12.55;;
27985;SDS011;15453;53.692;10.168;2022-10-31T08:35:44;27.45;;;11.48;;
27985;SDS011;15453;53.692;10.168;2022-10-31T08:38:10;15.82;;;9.93;;
27985;SDS011;15453;53.692;10.168;2022-10-31T08:40:36;19.95;;;12.68;;
27985;SDS011;15453;53.692;10.168;2022-10-31T08:43:03;17.52;;;10.80;;
27985;SDS011;15453;53.692;10.168;2022-10-31T08:45:30;25.38;;;12.43;;
27985;SDS011;15453;53.692;10.168;2022-10-31T08:47:57;21.15;;;12.65;;
27985;SDS011;15453;53.692;10.168;2022-10-31T08:50:24;21.33;;;11.93;;
27985;SDS011;15453;53.692;10.168;2022-10-31T08:52:49;24.45;;;11.85;;
27985;SDS011;15453;53.692;10.168;2022-10-31T08:55:14;20.10;;;12.15;;
27985;SDS011;15453;53.692;10.168;2022-10-31T08:57:40;18.10;;;11.60;;
27985;SDS011;15453;53.692;10.168;2022-10-31T09:00:06;22.30;;;12.48;;
27985;SDS011;15453;53.692;10.168;2022-10-31T09:02:32;21.60;;;12.63;;
27985;SDS011;15453;53.692;10.168;2022-10-31T09:04:57;20.08;;;12.13;;
27985;SDS011;15453;53.692;10.168;2022-10-31T09:07:22;20.90;;;11.82;;
27985;SDS011;15453;53.692;10.168;2022-10-31T09:09:47;16.02;;;10.93;;
27985;SDS011;15453;53.692;10.168;2022-10-31T09:12:13;18.75;;;11.40;;
27985;SDS011;15453;53.692;10.168;2022-10-31T09:14:38;16.08;;;10.27;;
27985;SDS011;15453;53.692;10.168;2022-10-31T09:17:03;19.10;;;11.80;;
27985;SDS011;15453;53.692;10.168;2022-10-31T09:19:28;21.10;;;12.25;;
27985;SDS011;15453;53.692;10.168;2022-10-31T09:21:54;22.75;;;12.70;;
27985;SDS011;15453;53.692;10.168;2022-10-31T09:24:19;21.13;;;13.00;;
27985;SDS011;15453;53.692;10.168;2022-10-31T09:26:44;19.40;;;12.57;;
27985;SDS011;15453;53.692;10.168;2022-10-31T09:29:09;18.05;;;11.13;;
27985;SDS011;15453;53.692;10.168;2022-10-31T09:31:35;16.92;;;11.18;;
27985;SDS011;15453;53.692;10.168;2022-10-31T09:34:00;18.73;;;12.07;;
27985;SDS011;15453;53.692;10.168;2022-10-31T09:36:26;18.27;;;10.88;;
27985;SDS011;15453;53.692;10.168;2022-10-31T09:38:51;16.92;;;10.75;;
27985;SDS011;15453;53.692;10.168;2022-10-31T09:41:44;18.05;;;11.20;;
27985;SDS011;15453;53.692;10.168;2022-10-31T09:44:26;21.52;;;13.13;;
27985;SDS011;15453;53.692;10.168;2022-10-31T09:47:09;18.70;;;12.02;;
27985;SDS011;15453;53.692;10.168;2022-10-31T09:49:59;18.48;;;11.90;;
27985;SDS011;15453;53.692;10.168;2022-10-31T09:52:35;19.45;;;12.20;;
27985;SDS011;15453;53.692;10.168;2022-10-31T09:55:04;21.83;;;13.80;;
27985;SDS011;15453;53.692;10.168;2022-10-31T09:57:38;16.73;;;11.70;;
27985;SDS011;15453;53.692;10.168;2022-10-31T10:00:07;21.52;;;12.57;;
27985;SDS011;15453;53.692;10.168;2022-10-31T10:02:56;20.08;;;12.18;;
27985;SDS011;15453;53.692;10.168;2022-10-31T10:05:32;20.77;;;12.77;;
27985;SDS011;15453;53.692;10.168;2022-10-31T10:08:09;19.90;;;12.93;;
27985;SDS011;15453;53.692;10.168;2022-10-31T10:13:33;19.38;;;12.82;;
27985;SDS011;15453;53.692;10.168;2022-10-31T10:16:09;20.73;;;12.25;;
27985;SDS011;15453;53.692;10.168;2022-10-31T10:21:42;18.00;;;11.07;;
27985;SDS011;15453;53.692;10.168;2022-10-31T10:24:31;15.68;;;10.07;;
27985;SDS011;15453;53.692;10.168;2022-10-31T10:27:05;21.00;;;12.43;;
27985;SDS011;15453;53.692;10.168;2022-10-31T10:29:53;21.42;;;12.50;;
27985;SDS011;15453;53.692;10.168;2022-10-31T10:32:30;20.73;;;12.15;;
27985;SDS011;15453;53.692;10.168;2022-10-31T10:35:04;19.25;;;11.82;;
27985;SDS011;15453;53.692;10.168;2022-10-31T10:37:40;18.67;;;12.35;;
27985;SDS011;15453;53.692;10.168;2022-10-31T10:40:11;21.27;;;12.75;;
27985;SDS011;15453;53.692;10.168;2022-10-31T10:42:41;18.60;;;12.80;;
27985;SDS011;15453;53.692;10.168;2022-10-31T10:45:30;21.75;;;12.95;;
27985;SDS011;15453;53.692;10.168;2022-10-31T10:48:39;21.52;;;13.20;;
27985;SDS011;15453;53.692;10.168;2022-10-31T10:51:10;17.80;;;12.35;;
27985;SDS011;15453;53.692;10.168;2022-10-31T10:53:54;17.48;;;11.88;;
27985;SDS011;15453;53.692;10.168;2022-10-31T10:59:23;15.02;;;10.30;;
27985;SDS011;15453;53.692;10.168;2022-10-31T11:01:49;17.80;;;12.15;;
27985;SDS011;15453;53.692;10.168;2022-10-31T11:06:57;15.57;;;11.07;;
27985;SDS011;15453;53.692;10.168;2022-10-31T11:09:33;19.33;;;10.65;;
27985;SDS011;15453;53.692;10.168;2022-10-31T11:12:00;19.25;;;12.15;;
27985;SDS011;15453;53.692;10.168;2022-10-31T11:14:34;18.30;;;11.98;;
27985;SDS011;15453;53.692;10.168;2022-10-31T11:17:10;17.45;;;11.18;;
27985;SDS011;15453;53.692;10.168;2022-10-31T11:19:44;16.02;;;10.52;;
27985;SDS011;15453;53.692;10.168;2022-10-31T11:22:14;16.98;;;10.23;;
27985;SDS011;15453;53.692;10.168;2022-10-31T11:24:42;18.48;;;10.80;;
27985;SDS011;15453;53.692;10.168;2022-10-31T11:27:11;16.90;;;10.95;;
27985;SDS011;15453;53.692;10.168;2022-10-31T11:29:39;16.38;;;10.65;;
27985;SDS011;15453;53.692;10.168;2022-10-31T11:32:04;18.02;;;11.48;;
27985;SDS011;15453;53.692;10.168;2022-10-31T11:34:30;15.23;;;9.95;;
27985;SDS011;15453;53.692;10.168;2022-10-31T11:39:52;17.02;;;10.77;;
27985;SDS011;15453;53.692;10.168;2022-10-31T11:42:20;14.43;;;9.07;;
27985;SDS011;15453;53.692;10.168;2022-10-31T11:44:47;14.13;;;9.73;;
27985;SDS011;15453;53.692;10.168;2022-10-31T11:47:16;15.27;;;9.90;;
27985;SDS011;15453;53.692;10.168;2022-10-31T11:54:50;14.57;;;9.13;;
27985;SDS011;15453;53.692;10.168;2022-10-31T11:57:23;13.88;;;8.40;;
27985;SDS011;15453;53.692;10.168;2022-10-31T11:59:51;13.32;;;8.07;;
27985;SDS011;15453;53.692;10.168;2022-10-31T12:02:19;12.35;;;8.40;;
27985;SDS011;15453;53.692;10.168;2022-10-31T12:04:45;15.23;;;9.77;;
27985;SDS011;15453;53.692;10.168;2022-10-31T12:07:13;15.60;;;9.73;;
27985;SDS011;15453;53.692;10.168;2022-10-31T12:09:39;18.40;;;11.27;;
27985;SDS011;15453;53.692;10.168;2022-10-31T12:12:16;15.57;;;9.93;;
27985;SDS011;15453;53.692;10.168;2022-10-31T12:15:08;14.50;;;9.98;;
27985;SDS011;15453;53.692;10.168;2022-10-31T12:18:03;15.40;;;9.10;;
27985;SDS011;15453;53.692;10.168;2022-10-31T12:25:51;15.27;;;8.90;;
27985;SDS011;15453;53.692;10.168;2022-10-31T12:28:36;16.23;;;8.73;;
27985;SDS011;15453;53.692;10.168;2022-10-31T12:34:02;15.77;;;8.88;;
27985;SDS011;15453;53.692;10.168;2022-10-31T12:39:19;13.43;;;8.85;;
27985;SDS011;15453;53.692;10.168;2022-10-31T12:44:27;17.08;;;9.48;;
27985;SDS011;15453;53.692;10.168;2022-10-31T12:47:11;13.18;;;8.30;;
27985;SDS011;15453;53.692;10.168;2022-10-31T12:52:53;13.88;;;8.45;;
27985;SDS011;15453;53.692;10.168;2022-10-31T12:58:10;14.35;;;8.65;;
27985;SDS011;15453;53.692;10.168;2022-10-31T13:00:53;14.55;;;9.07;;
27985;SDS011;15453;53.692;10.168;2022-10-31T13:06:37;15.55;;;8.52;;
27985;SDS011;15453;53.692;10.168;2022-10-31T13:09:06;15.43;;;8.73;;
27985;SDS011;15453;53.692;10.168;2022-10-31T13:11:36;15.35;;;8.82;;
27985;SDS011;15453;53.692;10.168;2022-10-31T13:14:23;17.08;;;9.88;;
27985;SDS011;15453;53.692;10.168;2022-10-31T13:16:52;15.60;;;8.93;;
27985;SDS011;15453;53.692;10.168;2022-10-31T13:19:21;19.75;;;9.98;;
27985;SDS011;15453;53.692;10.168;2022-10-31T13:24:19;13.13;;;8.95;;
27985;SDS011;15453;53.692;10.168;2022-10-31T13:26:54;15.55;;;8.57;;
27985;SDS011;15453;53.692;10.168;2022-10-31T13:29:33;13.57;;;8.95;;
27985;SDS011;15453;53.692;10.168;2022-10-31T13:32:04;16.92;;;9.07;;
27985;SDS011;15453;53.692;10.168;2022-10-31T13:34:31;17.48;;;9.63;;
27985;SDS011;15453;53.692;10.168;2022-10-31T13:37:16;13.82;;;8.40;;
27985;SDS011;15453;53.692;10.168;2022-10-31T13:40:00;14.70;;;8.73;;
27985;SDS011;15453;53.692;10.168;2022-10-31T13:42:38;13.70;;;8.43;;
27985;SDS011;15453;53.692;10.168;2022-10-31T13:45:15;15.40;;;9.25;;
27985;SDS011;15453;53.692;10.168;2022-10-31T13:47:43;16.30;;;8.77;;
27985;SDS011;15453;53.692;10.168;2022-10-31T13:50:21;12.23;;;8.23;;
27985;SDS011;15453;53.692;10.168;2022-10-31T13:52:49;18.90;;;9.17;;
27985;SDS011;15453;53.692;10.168;2022-10-31T13:58:28;12.93;;;8.15;;
27985;SDS011;15453;53.692;10.168;2022-10-31T14:03:36;14.80;;;9.13;;
27985;SDS011;15453;53.692;10.168;2022-10-31T14:06:03;16.63;;;9.75;;
27985;SDS011;15453;53.692;10.168;2022-10-31T14:08:31;26.60;;;9.85;;
27985;SDS011;15453;53.692;10.168;2022-10-31T14:10:59;13.32;;;8.25;;
27985;SDS011;15453;53.692;10.168;2022-10-31T14:13:27;17.10;;;9.75;;
27985;SDS011;15453;53.692;10.168;2022-10-31T14:16:02;17.17;;;9.45;;
27985;SDS011;15453;53.692;10.168;2022-10-31T14:18:31;18.35;;;9.48;;
27985;SDS011;15453;53.692;10.168;2022-10-31T14:20:59;17.80;;;9.13;;
27985;SDS011;15453;53.692;10.168;2022-10-31T14:31:44;18.42;;;10.15;;
27985;SDS011;15453;53.692;10.168;2022-10-31T14:51:12;16.58;;;9.65;;
27985;SDS011;15453;53.692;10.168;2022-10-31T14:53:44;20.60;;;11.05;;
27985;SDS011;15453;53.692;10.168;2022-10-31T14:56:14;17.60;;;9.45;;
27985;SDS011;15453;53.692;10.168;2022-10-31T14:58:45;17.75;;;9.73;;
27985;SDS011;15453;53.692;10.168;2022-10-31T15:01:20;13.48;;;9.15;;
27985;SDS011;15453;53.692;10.168;2022-10-31T15:04:18;14.75;;;9.07;;
27985;SDS011;15453;53.692;10.168;2022-10-31T15:06:57;15.10;;;9.18;;
27985;SDS011;15453;53.692;10.168;2022-10-31T15:09:30;14.52;;;8.88;;
27985;SDS011;15453;53.692;10.168;2022-10-31T15:11:59;16.05;;;8.77;;
27985;SDS011;15453;53.692;10.168;2022-10-31T15:14:45;14.60;;;8.38;;
27985;SDS011;15453;53.692;10.168;2022-10-31T15:17:10;14.05;;;7.93;;
27985;SDS011;15453;53.692;10.168;2022-10-31T15:19:36;14.63;;;7.85;;
27985;SDS011;15453;53.692;10.168;2022-10-31T15:22:02;12.77;;;8.25;;
27985;SDS011;15453;53.692;10.168;2022-10-31T15:24:35;13.55;;;8.65;;
27985;SDS011;15453;53.692;10.168;2022-10-31T15:27:02;15.73;;;8.48;;
27985;SDS011;15453;53.692;10.168;2022-10-31T15:29:28;13.13;;;7.10;;
27985;SDS011;15453;53.692;10.168;2022-10-31T15:32:01;11.98;;;6.70;;
27985;SDS011;15453;53.692;10.168;2022-10-31T15:34:43;11.73;;;7.25;;
27985;SDS011;15453;53.692;10.168;2022-10-31T15:37:12;20.00;;;12.23;;
27985;SDS011;15453;53.692;10.168;2022-10-31T15:39:39;40.45;;;23.45;;
27985;SDS011;15453;53.692;10.168;2022-10-31T15:42:13;39.72;;;25.02;;
27985;SDS011;15453;53.692;10.168;2022-10-31T15:47:30;16.95;;;10.63;;
27985;SDS011;15453;53.692;10.168;2022-10-31T15:49:58;14.93;;;9.00;;
27985;SDS011;15453;53.692;10.168;2022-10-31T15:52:41;15.10;;;9.38;;
27985;SDS011;15453;53.692;10.168;2022-10-31T15:57:33;15.27;;;9.27;;
27985;SDS011;15453;53.692;10.168;2022-10-31T15:59:58;18.20;;;10.07;;
27985;SDS011;15453;53.692;10.168;2022-10-31T16:02:25;19.27;;;11.85;;
27985;SDS011;15453;53.692;10.168;2022-10-31T16:05:01;18.05;;;11.70;;
27985;SDS011;15453;53.692;10.168;2022-10-31T16:07:27;21.10;;;12.68;;
27985;SDS011;15453;53.692;10.168;2022-10-31T16:09:57;21.42;;;13.63;;
27985;SDS011;15453;53.692;10.168;2022-10-31T16:12:33;19.90;;;13.13;;
27985;SDS011;15453;53.692;10.168;2022-10-31T16:15:01;22.52;;;13.82;;
27985;SDS011;15453;53.692;10.168;2022-10-31T16:17:27;20.02;;;13.65;;
27985;SDS011;15453;53.692;10.168;2022-10-31T16:22:30;25.90;;;15.00;;